createdAt,value
2019-05-15T00:00:28.908Z,63.45
2019-05-15T00:02:59.810Z,63.81
2019-05-15T00:05:32.369Z,63.81
2019-05-15T00:08:09.145Z,63.66
2019-05-15T00:10:40.277Z,63.61
2019-05-15T00:13:11.373Z,63.98
2019-05-15T00:15:42.528Z,63.90
2019-05-15T00:18:15.369Z,63.72
2019-05-15T00:20:49.596Z,64.68
2019-05-15T00:23:21.754Z,64.90
2019-05-15T00:25:52.822Z,64.53
2019-05-15T00:28:23.908Z,64.67
2019-05-15T00:30:58.279Z,66.80
2019-05-15T00:33:29.558Z,66.32
2019-05-15T00:36:00.659Z,66.50
2019-05-15T00:38:38.763Z,66.26
2019-05-15T00:41:09.664Z,66.47
2019-05-15T00:43:40.926Z,66.45
2019-05-15T00:46:11.985Z,67.54
2019-05-15T00:48:43.147Z,67.60
2019-05-15T00:51:14.868Z,67.52
2019-05-15T00:53:48.291Z,67.35
2019-05-15T00:56:19.668Z,68.20
2019-05-15T00:58:50.731Z,68.90
2019-05-15T01:01:21.875Z,69.35
2019-05-15T01:03:52.992Z,68.30
2019-05-15T01:06:24.065Z,68.88
2019-05-15T01:08:55.126Z,68.85
2019-05-15T01:11:28.502Z,69.13
2019-05-15T01:14:02.703Z,69.70
2019-05-15T01:16:33.737Z,70.41
2019-05-15T01:19:04.881Z,69.29
2019-05-15T01:21:38.544Z,69.93
2019-05-15T01:24:09.888Z,70.12
2019-05-15T01:26:41.122Z,69.86
2019-05-15T01:29:12.305Z,69.83
2019-05-15T01:31:43.378Z,70.40
2019-05-15T01:34:14.449Z,70.60
2019-05-15T01:36:45.494Z,69.67
2019-05-15T01:39:18.450Z,69.61
2019-05-15T01:41:49.826Z,69.62
2019-05-15T01:44:20.982Z,69.14
2019-05-15T01:46:52.042Z,70.15
2019-05-15T01:49:23.141Z,70.30
2019-05-15T01:51:54.252Z,69.68
2019-05-15T01:54:25.494Z,70.30
2019-05-15T01:56:58.727Z,70.10
2019-05-15T01:59:30.015Z,70.46
2019-05-15T02:02:04.125Z,69.76
2019-05-15T02:04:35.353Z,70.68
2019-05-15T02:07:09.583Z,71.01
2019-05-15T02:09:40.766Z,70.60
2019-05-15T02:12:13.365Z,70.56
2019-05-15T02:14:44.495Z,71.37
2019-05-15T02:17:15.610Z,72.15
2019-05-15T02:19:51.096Z,71.81
2019-05-15T02:22:22.166Z,71.48
2019-05-15T02:24:53.286Z,72.25
2019-05-15T02:27:29.466Z,72.30
2019-05-15T02:30:15.994Z,73.29
2019-05-15T02:32:33.072Z,73.63
2019-05-15T02:35:10.052Z,73.68
2019-05-15T02:37:41.408Z,74.30
2019-05-15T02:40:14.666Z,74.03
2019-05-15T02:42:49.285Z,74.46
2019-05-15T02:45:20.779Z,75.40
2019-05-15T02:47:51.912Z,75.94
2019-05-15T02:50:24.657Z,77.11
2019-05-15T02:52:55.756Z,77.83
2019-05-15T02:55:29.618Z,78.27
2019-05-15T02:58:02.471Z,78.05
2019-05-15T03:00:43.948Z,78.85
2019-05-15T03:03:09.263Z,79.02
2019-05-15T03:05:40.908Z,78.65
2019-05-15T03:08:11.833Z,78.62
2019-05-15T03:10:43.860Z,78.71
2019-05-15T03:13:14.958Z,79.01
2019-05-15T03:15:48.938Z,79.19
2019-05-15T03:18:20.498Z,79.32
2019-05-15T03:20:51.575Z,79.00
2019-05-15T03:23:22.652Z,78.78
2019-05-15T03:25:54.676Z,78.46
2019-05-15T03:28:25.748Z,78.82
2019-05-15T03:33:36.206Z,78.33
2019-05-15T03:36:04.194Z,78.36
2019-05-15T03:38:39.301Z,78.09
2019-05-15T03:41:10.361Z,77.92
2019-05-15T03:43:43.355Z,77.73
2019-05-15T03:46:16.005Z,77.50
2019-05-15T03:48:48.703Z,77.23
2019-05-15T03:51:20.193Z,76.59
2019-05-15T03:53:51.320Z,76.01
2019-05-15T03:56:29.432Z,75.11
2019-05-15T03:59:00.001Z,73.97
2019-05-15T04:01:38.431Z,73.76
2019-05-15T04:04:03.970Z,72.96
2019-05-15T04:06:39.209Z,72.14
2019-05-15T04:09:11.838Z,71.92
2019-05-15T04:11:43.960Z,71.43
2019-05-15T04:14:15.068Z,70.67
2019-05-15T04:16:49.396Z,69.79
2019-05-15T04:19:19.335Z,70.01
2019-05-15T04:21:52.109Z,69.79
2019-05-15T04:24:29.891Z,69.55
2019-05-15T04:27:09.664Z,69.86
2019-05-15T04:29:39.647Z,69.46
2019-05-15T04:32:10.758Z,69.55
2019-05-15T04:34:43.812Z,69.52
2019-05-15T04:37:14.944Z,70.08
2019-05-15T04:39:49.294Z,70.31
2019-05-15T04:42:21.272Z,70.75
2019-05-15T04:44:52.413Z,71.31
2019-05-15T04:47:23.468Z,72.48
2019-05-15T04:49:54.539Z,73.58
2019-05-15T04:52:30.290Z,74.90
2019-05-15T04:55:00.023Z,76.03
2019-05-15T04:57:34.097Z,77.12
2019-05-15T05:00:09.574Z,77.71
2019-05-15T05:02:40.738Z,78.48
2019-05-15T05:05:15.198Z,79.06
2019-05-15T05:07:48.941Z,78.95
2019-05-15T05:10:23.410Z,79.20
2019-05-15T05:12:54.535Z,79.53
2019-05-15T05:15:29.263Z,79.92
2019-05-15T05:17:59.805Z,79.96
2019-05-15T05:20:33.919Z,80.25
2019-05-15T05:23:05.605Z,81.17
2019-05-15T05:25:38.689Z,81.24
2019-05-15T05:28:13.235Z,81.87
2019-05-15T05:30:48.255Z,81.99
2019-05-15T05:33:24.498Z,82.22
2019-05-15T05:36:00.068Z,82.58
2019-05-15T05:38:38.726Z,82.87
2019-05-15T05:41:28.029Z,82.89
2019-05-15T05:43:48.919Z,83.40
2019-05-15T05:46:40.356Z,83.36
2019-05-15T05:49:24.429Z,83.13
2019-05-15T05:54:58.103Z,82.67
2019-05-15T06:01:28.826Z,82.23
2019-05-15T06:04:04.114Z,82.09
2019-05-15T06:07:06.169Z,82.16
2019-05-15T06:09:29.964Z,81.51
2019-05-15T06:12:04.716Z,81.43
2019-05-15T06:14:38.025Z,81.39
2019-05-15T06:21:17.915Z,80.44
2019-05-15T06:24:18.079Z,80.58
2019-05-15T06:26:53.358Z,80.32
2019-05-15T06:37:51.836Z,79.72
2019-05-15T06:47:28.426Z,77.28
2019-05-15T06:50:08.415Z,76.99
2019-05-15T06:52:39.151Z,77.00
2019-05-15T06:55:38.906Z,77.45
2019-05-15T07:02:22.446Z,76.68
2019-05-15T08:08:12.255Z,72.62
2019-05-15T10:40:33.863Z,63.32
2019-05-15T10:46:32.354Z,62.79
2019-05-15T10:49:10.173Z,62.49
2019-05-15T10:51:42.168Z,62.44
2019-05-15T10:54:19.213Z,61.70
2019-05-15T10:56:52.834Z,62.03
2019-05-15T10:59:28.155Z,60.34
2019-05-15T11:01:59.383Z,60.09
2019-05-15T11:04:32.275Z,60.34
2019-05-15T11:07:03.806Z,58.84
2019-05-15T11:09:34.949Z,59.85
2019-05-15T11:12:08.745Z,59.69
2019-05-15T11:14:41.609Z,58.63
2019-05-15T11:17:13.044Z,59.39
2019-05-15T11:19:44.460Z,59.09
2019-05-15T11:22:18.962Z,59.38
2019-05-15T11:24:53.077Z,60.13
2019-05-15T11:27:28.372Z,60.93
2019-05-15T11:30:02.118Z,59.74
2019-05-15T11:32:33.209Z,59.89
2019-05-15T11:35:05.885Z,59.01
2019-05-15T11:37:43.892Z,58.90
2019-05-15T11:40:11.468Z,59.58
2019-05-15T11:42:42.667Z,59.48
2019-05-15T11:45:18.542Z,61.15
2019-05-15T11:47:49.622Z,60.73
2019-05-15T11:50:23.770Z,59.63
2019-05-15T11:52:54.874Z,60.22
2019-05-15T11:55:25.985Z,59.54
2019-05-15T12:01:53.433Z,59.54
2019-05-15T12:04:33.253Z,58.37
2019-05-15T12:07:02.743Z,58.59
2019-05-15T12:09:33.896Z,57.82
2019-05-15T12:12:13.259Z,58.21
2019-05-15T12:14:49.237Z,59.37
2019-05-15T12:17:19.059Z,59.76
2019-05-15T12:19:55.876Z,59.16
2019-05-15T12:22:28.945Z,58.84
2019-05-15T12:25:01.830Z,58.42
2019-05-15T12:27:32.964Z,58.32
2019-05-15T12:30:09.780Z,58.47
2019-05-15T12:32:40.409Z,58.79
2019-05-15T12:35:11.894Z,59.15
2019-05-15T12:37:47.607Z,58.93
2019-05-15T13:01:17.077Z,57.13
2019-05-15T13:03:42.300Z,56.27
2019-05-15T13:06:13.448Z,57.04
2019-05-15T13:08:44.524Z,58.31
2019-05-15T13:11:17.904Z,57.41
2019-05-15T13:13:48.613Z,57.40
2019-05-15T13:16:19.797Z,56.97
2019-05-15T13:18:50.862Z,57.44
2019-05-15T13:21:21.986Z,57.76
2019-05-15T13:23:53.084Z,56.83
2019-05-15T13:26:26.941Z,57.80
2019-05-15T13:28:58.272Z,57.17
2019-05-15T13:31:30.499Z,57.95
2019-05-15T13:34:01.549Z,57.71
2019-05-15T13:36:32.760Z,57.95
2019-05-15T13:39:05.530Z,58.16
2019-05-15T13:41:39.079Z,59.26
2019-05-15T13:44:11.621Z,59.03
2019-05-15T13:46:45.286Z,58.75
2019-05-15T13:49:18.573Z,58.14
2019-05-15T13:51:50.828Z,56.95
2019-05-15T13:54:22.632Z,58.10
2019-05-15T13:56:55.226Z,57.89
2019-05-15T13:59:28.507Z,58.68
2019-05-15T14:01:59.955Z,59.11
2019-05-15T14:04:31.050Z,58.52
2019-05-15T14:07:02.168Z,59.67
2019-05-15T14:09:34.643Z,59.62
2019-05-15T14:12:11.604Z,59.32
2019-05-15T14:14:38.685Z,60.36
2019-05-15T14:17:10.704Z,60.57
2019-05-15T14:19:41.709Z,60.41
2019-05-15T14:22:12.803Z,60.26
2019-05-15T14:24:45.704Z,60.25
2019-05-15T14:27:19.304Z,60.47
2019-05-15T14:29:50.928Z,60.17
2019-05-15T14:32:35.378Z,60.68
2019-05-15T14:34:58.374Z,59.77
2019-05-15T14:37:28.724Z,59.94
2019-05-15T14:39:59.895Z,59.62
2019-05-15T14:42:31.912Z,59.50
2019-05-15T14:45:03.074Z,59.61
2019-05-15T14:47:38.658Z,59.67
2019-05-15T14:50:10.336Z,59.95
2019-05-15T14:52:41.703Z,59.88
2019-05-15T14:55:13.289Z,60.48
2019-05-15T14:57:48.473Z,60.80
2019-05-15T15:00:20.415Z,60.57
2019-05-15T15:02:52.803Z,60.28
2019-05-15T15:05:25.517Z,60.62
2019-05-15T15:07:59.650Z,60.91
2019-05-15T15:10:33.958Z,60.50
2019-05-15T15:13:05.061Z,61.19
2019-05-15T15:15:37.939Z,61.64
2019-05-15T15:18:10.085Z,61.34
2019-05-15T15:20:41.142Z,61.54
2019-05-15T15:23:13.882Z,62.32
2019-05-15T15:25:45.026Z,62.94
2019-05-15T15:28:18.688Z,62.51
2019-05-15T15:30:50.658Z,63.06
2019-05-15T15:33:21.860Z,63.44
2019-05-15T15:35:53.150Z,63.48
2019-05-15T15:38:38.017Z,63.36
2019-05-15T15:41:00.096Z,63.41
2019-05-15T15:43:31.091Z,63.60
2019-05-15T15:46:02.146Z,63.96
2019-05-15T15:48:33.269Z,63.67
2019-05-15T15:51:05.354Z,63.99
2019-05-15T15:53:39.057Z,64.16
2019-05-15T15:56:11.813Z,65.12
2019-05-15T15:58:42.953Z,65.31
2019-05-15T16:01:14.050Z,65.57
2019-05-15T16:03:47.965Z,65.65
2019-05-15T16:06:18.935Z,66.75
2019-05-15T16:08:55.128Z,66.73
2019-05-15T16:11:24.329Z,67.29
2019-05-15T16:13:57.945Z,67.95
2019-05-15T16:16:31.524Z,69.28
2019-05-15T16:19:07.253Z,68.98
2019-05-15T16:21:39.815Z,69.08
2019-05-15T16:24:17.450Z,68.96
2019-05-15T16:26:45.239Z,68.97
2019-05-15T16:29:18.305Z,69.52
2019-05-15T16:31:49.376Z,69.53
2019-05-15T16:34:23.860Z,69.08
2019-05-15T16:36:55.167Z,69.33
2019-05-15T16:39:28.702Z,69.78
2019-05-15T16:41:59.851Z,69.09
2019-05-15T16:44:32.570Z,69.71
2019-05-15T16:47:03.727Z,69.13
2019-05-15T16:49:35.720Z,68.56
2019-05-15T16:52:09.018Z,68.76
2019-05-15T16:54:39.615Z,68.42
2019-05-15T16:57:10.673Z,68.07
2019-05-15T16:59:42.719Z,67.84
2019-05-15T17:02:13.985Z,67.54
2019-05-15T17:04:45.989Z,67.94
2019-05-15T17:07:18.253Z,67.68
2019-05-15T17:09:49.729Z,67.31
2019-05-15T17:12:20.834Z,66.86
2019-05-15T17:14:52.834Z,66.89
2019-05-15T17:17:24.001Z,66.62
2019-05-15T17:19:57.968Z,67.37
2019-05-15T17:22:29.391Z,67.08
2019-05-15T17:25:00.547Z,67.78
2019-05-15T17:27:33.349Z,67.55
2019-05-15T17:30:05.752Z,67.50
2019-05-15T17:32:39.868Z,67.76
2019-05-15T17:35:12.318Z,68.20
2019-05-15T17:37:43.723Z,68.57
2019-05-15T17:40:17.664Z,69.55
2019-05-15T17:42:50.573Z,69.98
2019-05-15T17:45:23.332Z,70.48
2019-05-15T17:47:54.814Z,71.31
2019-05-15T17:50:28.312Z,71.82
2019-05-15T17:52:59.601Z,71.63
2019-05-15T17:55:30.760Z,72.01
2019-05-15T17:58:01.946Z,72.15
2019-05-15T18:00:33.866Z,73.58
2019-05-15T18:03:05.090Z,73.65
2019-05-15T18:05:39.181Z,74.48
2019-05-15T18:08:10.452Z,74.69
2019-05-15T18:10:41.587Z,75.07
2019-05-15T18:13:12.639Z,75.05
2019-05-15T18:15:45.178Z,76.20
2019-05-15T18:18:18.512Z,76.35
2019-05-15T18:20:49.985Z,76.55
2019-05-15T18:23:23.664Z,76.70
2019-05-15T18:25:54.982Z,76.54
2019-05-15T18:28:26.260Z,76.65
2019-05-15T18:30:58.768Z,77.27
2019-05-15T18:33:31.507Z,77.33
2019-05-15T18:36:04.995Z,77.67
2019-05-15T18:38:38.588Z,77.84
2019-05-15T18:41:09.157Z,77.37
2019-05-15T18:43:40.317Z,77.35
2019-05-15T18:46:12.297Z,77.38
2019-05-15T18:48:43.441Z,77.76
2019-05-15T18:51:15.369Z,78.01
2019-05-15T18:53:48.201Z,78.12
2019-05-15T18:56:19.600Z,78.86
2019-05-15T18:58:50.668Z,78.43
2019-05-15T19:01:21.897Z,78.22
2019-05-15T19:03:53.191Z,77.91
2019-05-15T19:10:20.457Z,78.27
2019-05-15T19:12:58.648Z,78.03
2019-05-15T19:15:32.311Z,78.37
2019-05-15T19:18:02.539Z,78.34
2019-05-15T19:20:33.903Z,78.68
2019-05-15T19:23:08.007Z,78.22
2019-05-15T19:25:42.531Z,78.33
2019-05-15T19:28:24.515Z,78.13
2019-05-15T19:41:29.484Z,79.59
2019-05-15T19:44:00.929Z,80.18
2019-05-15T19:46:34.042Z,80.18
2019-05-15T19:49:05.094Z,80.33
2019-05-15T19:51:38.125Z,80.74
2019-05-15T19:54:09.419Z,80.57
2019-05-15T19:56:41.324Z,80.22
2019-05-15T19:59:12.401Z,80.12
2019-05-15T20:01:45.279Z,80.34
2019-05-15T20:04:18.439Z,80.03
2019-05-15T20:06:49.407Z,80.25
2019-05-15T20:09:20.497Z,80.03
2019-05-15T20:11:52.421Z,80.37
2019-05-15T20:14:28.825Z,80.38
2019-05-15T20:17:00.073Z,80.12
2019-05-15T20:19:32.727Z,80.40
2019-05-15T20:22:03.843Z,80.55
2019-05-15T20:24:38.173Z,80.79
2019-05-15T20:27:11.165Z,81.31
2019-05-15T20:29:42.257Z,82.17
2019-05-15T20:32:18.449Z,82.14
2019-05-15T20:34:49.806Z,82.09
2019-05-15T20:37:20.927Z,82.09
2019-05-15T20:40:03.555Z,82.34
2019-05-15T20:42:34.862Z,82.26
2019-05-15T20:45:11.627Z,82.14
2019-05-15T20:47:47.846Z,82.25
2019-05-15T20:50:19.466Z,81.94
2019-05-15T20:52:52.134Z,82.22
2019-05-15T20:55:23.175Z,82.31
2019-05-15T20:57:55.168Z,82.29
2019-05-15T21:00:27.724Z,82.55
2019-05-15T21:02:58.831Z,82.45
2019-05-15T21:05:29.935Z,82.69
2019-05-15T21:08:01.287Z,82.90
2019-05-15T21:10:32.346Z,82.89
2019-05-15T21:13:03.436Z,82.86
2019-05-15T21:15:34.480Z,82.93
2019-05-15T21:18:14.668Z,83.02
2019-05-15T21:20:38.290Z,82.99
2019-05-15T21:23:09.517Z,83.29
2019-05-15T21:25:40.556Z,83.25
2019-05-15T21:28:12.428Z,83.44
2019-05-15T21:30:43.443Z,83.61
2019-05-15T21:33:14.496Z,83.87
2019-05-15T21:35:47.634Z,83.96
2019-05-15T21:38:21.214Z,84.23
2019-05-15T21:40:51.109Z,84.47
2019-05-15T21:43:22.974Z,84.63
2019-05-15T21:45:54.046Z,84.64
2019-05-15T21:48:25.111Z,84.42
2019-05-15T21:50:56.319Z,84.06
2019-05-15T21:53:28.693Z,84.10
2019-05-15T21:56:00.100Z,84.14
2019-05-15T21:58:33.578Z,84.26
2019-05-15T22:01:04.829Z,84.40
2019-05-15T22:03:35.912Z,84.29
2019-05-15T22:06:08.794Z,84.07
2019-05-15T22:08:39.920Z,84.13
2019-05-15T22:11:12.671Z,84.27
2019-05-15T22:13:47.918Z,83.99
2019-05-15T22:16:19.484Z,83.63
2019-05-15T22:18:52.077Z,84.08
2019-05-15T22:21:26.401Z,83.46
2019-05-15T22:23:59.878Z,83.89
2019-05-15T22:26:31.746Z,84.27
2019-05-15T22:29:03.718Z,84.00
2019-05-15T22:31:35.050Z,84.71
2019-05-15T22:34:07.826Z,84.26
2019-05-15T22:36:38.867Z,83.10
2019-05-15T22:39:10.049Z,82.94
2019-05-15T22:41:41.195Z,82.60
2019-05-15T22:44:13.097Z,83.09
2019-05-15T22:46:44.149Z,82.96
2019-05-15T22:49:18.169Z,82.68
2019-05-15T22:51:48.795Z,82.10
2019-05-15T22:54:21.377Z,82.69
2019-05-15T22:56:57.560Z,82.55
2019-05-15T22:59:28.427Z,82.06
2019-05-15T23:01:59.517Z,82.21
2019-05-15T23:04:30.630Z,82.61
2019-05-15T23:07:01.692Z,82.37
2019-05-15T23:09:32.740Z,82.35
2019-05-15T23:12:04.098Z,82.23
2019-05-15T23:14:35.209Z,82.10
2019-05-15T23:17:08.204Z,81.94
2019-05-15T23:19:39.017Z,81.79
2019-05-15T23:22:10.044Z,82.47
2019-05-15T23:24:41.104Z,82.37
2019-05-15T23:27:12.192Z,82.07
2019-05-15T23:29:44.069Z,81.91
2019-05-15T23:32:15.147Z,82.50
2019-05-15T23:34:49.165Z,82.42
2019-05-15T23:37:19.771Z,83.49
2019-05-15T23:39:50.926Z,83.77
2019-05-15T23:42:23.433Z,84.30
2019-05-15T23:44:54.555Z,84.29
2019-05-15T23:47:25.632Z,84.35
2019-05-15T23:49:57.874Z,84.45
2019-05-15T23:52:29.734Z,84.42
2019-05-15T23:55:00.790Z,84.72
2019-05-15T23:57:31.854Z,84.55
